Time;durP1;ratioP1;P1;durP2;ratioP2;P2;SDS_P1;SDS_P2;PMS_P1;PMS_P2;Temp;Humidity;BMP_temperature;BMP_pressure;BME280_temperature;BME280_humidity;BME280_pressure;Samples;Min_cycle;Max_cycle;Signal;HPM_P1;HPM_P2
2022/03/29 00:02:03;;;;;;;36.97;19.35;;;;;;;;;;5039491;28;20025;-89
2022/03/29 00:04:29;;;;;;;39.10;20.90;;;;;;;;;;5039427;28;20079;-89
2022/03/29 00:06:55;;;;;;;40.92;20.70;;;;;;;;;;5038396;28;20104;-91
2022/03/29 00:09:22;;;;;;;38.60;21.38;;;;;;;;;;5038482;28;20021;-90
2022/03/29 00:11:48;;;;;;;38.38;21.30;;;;;;;;;;5038306;28;20053;-88
2022/03/29 00:14:14;;;;;;;40.83;21.10;;;;;;;;;;5039193;28;20025;-90
2022/03/29 00:16:41;;;;;;;46.95;22.00;;;;;;;;;;5038314;28;20075;-89
2022/03/29 00:19:07;;;;;;;40.67;21.30;;;;;;;;;;5039419;28;20045;-89
2022/03/29 00:21:33;;;;;;;42.38;20.60;;;;;;;;;;5038898;28;20033;-92
2022/03/29 00:23:59;;;;;;;42.03;21.98;;;;;;;;;;5038509;28;20022;-92
2022/03/29 00:26:25;;;;;;;45.35;22.13;;;;;;;;;;5038938;28;20049;-92
2022/03/29 00:28:52;;;;;;;41.28;22.45;;;;;;;;;;5039222;28;20305;-92
2022/03/29 00:31:20;;;;;;;50.97;24.27;;;;;;;;;;5037692;28;20068;-92
2022/03/29 00:33:47;;;;;;;45.80;24.30;;;;;;;;;;5038836;28;20025;-89
2022/03/29 00:36:13;;;;;;;46.53;24.25;;;;;;;;;;5038725;28;20332;-90
2022/03/29 00:38:39;;;;;;;49.25;25.10;;;;;;;;;;5037650;28;20029;-93
2022/03/29 00:41:05;;;;;;;48.50;25.98;;;;;;;;;;5038373;28;20021;-94
2022/03/29 00:43:31;;;;;;;44.40;24.02;;;;;;;;;;5038602;28;20041;-93
2022/03/29 00:46:00;;;;;;;43.78;23.13;;;;;;;;;;5038860;28;20301;-93
2022/03/29 00:48:26;;;;;;;51.20;24.42;;;;;;;;;;5038811;28;20068;-92
2022/03/29 00:50:54;;;;;;;43.45;23.65;;;;;;;;;;5038354;28;20033;-92
2022/03/29 00:53:22;;;;;;;49.50;23.77;;;;;;;;;;5037472;28;20432;-92
2022/03/29 00:55:49;;;;;;;45.17;23.27;;;;;;;;;;5037305;28;20159;-92
2022/03/29 00:58:15;;;;;;;40.55;23.50;;;;;;;;;;5038467;28;20047;-93
2022/03/29 01:00:42;;;;;;;44.03;23.35;;;;;;;;;;5038725;28;20022;-93
2022/03/29 01:03:08;;;;;;;50.33;23.48;;;;;;;;;;5038139;28;20018;-92
2022/03/29 01:05:34;;;;;;;40.03;22.00;;;;;;;;;;5038349;28;20327;-91
2022/03/29 01:08:01;;;;;;;38.33;22.33;;;;;;;;;;5038425;28;20017;-91
2022/03/29 01:10:28;;;;;;;39.65;21.52;;;;;;;;;;5036277;28;20034;-91
2022/03/29 01:12:55;;;;;;;41.38;22.33;;;;;;;;;;5038145;28;20037;-90
2022/03/29 01:15:23;;;;;;;36.17;21.38;;;;;;;;;;5037923;28;20029;-91
2022/03/29 01:17:49;;;;;;;38.00;22.13;;;;;;;;;;5038018;28;20296;-91
2022/03/29 01:20:20;;;;;;;37.45;21.58;;;;;;;;;;5036941;28;20099;-91
2022/03/29 01:22:49;;;;;;;45.45;22.50;;;;;;;;;;5037150;28;20064;-91
2022/03/29 01:25:17;;;;;;;41.00;22.77;;;;;;;;;;5037999;28;20029;-91
2022/03/29 01:27:44;;;;;;;43.75;21.02;;;;;;;;;;5038155;28;20053;-91
2022/03/29 01:30:10;;;;;;;45.40;22.77;;;;;;;;;;5037821;28;20443;-91
2022/03/29 01:32:39;;;;;;;46.28;21.58;;;;;;;;;;5037085;28;20324;-90
2022/03/29 01:35:06;;;;;;;51.65;21.75;;;;;;;;;;5037372;28;20021;-89
2022/03/29 01:37:32;;;;;;;45.22;23.42;;;;;;;;;;5036801;28;20040;-89
2022/03/29 01:39:58;;;;;;;48.20;21.98;;;;;;;;;;5036677;28;20056;-89
2022/03/29 01:42:24;;;;;;;45.83;22.05;;;;;;;;;;5036931;28;20044;-89
2022/03/29 01:44:51;;;;;;;41.90;21.40;;;;;;;;;;5037831;28;20025;-88
2022/03/29 01:47:21;;;;;;;41.22;20.67;;;;;;;;;;5036924;28;20036;-88
2022/03/29 01:49:47;;;;;;;38.30;19.98;;;;;;;;;;5037832;28;20087;-90
2022/03/29 01:52:14;;;;;;;40.15;21.05;;;;;;;;;;5036622;28;20419;-91
2022/03/29 01:54:40;;;;;;;38.60;20.13;;;;;;;;;;5036560;28;20056;-91
2022/03/29 01:57:06;;;;;;;40.92;20.65;;;;;;;;;;5036625;28;20124;-90
2022/03/29 02:00:30;;;;;;;42.22;20.05;;;;;;;;;;5037789;28;20030;-90
2022/03/29 02:02:18;;;;;;;39.20;18.33;;;;;;;;;;5037667;28;20025;-92
2022/03/29 02:04:44;;;;;;;39.35;19.20;;;;;;;;;;5037383;28;20032;-89
2022/03/29 02:07:11;;;;;;;34.60;17.80;;;;;;;;;;5037536;28;20320;-89
2022/03/29 02:09:37;;;;;;;30.58;16.05;;;;;;;;;;5037498;28;20041;-89
2022/03/29 02:12:05;;;;;;;28.75;15.15;;;;;;;;;;5036487;28;20037;-89
2022/03/29 02:14:34;;;;;;;27.20;15.05;;;;;;;;;;5037339;28;20104;-89
2022/03/29 02:17:00;;;;;;;26.50;14.68;;;;;;;;;;5037360;28;20029;-91
2022/03/29 02:19:26;;;;;;;33.08;15.10;;;;;;;;;;5037535;28;20025;-91
2022/03/29 02:21:53;;;;;;;26.73;14.13;;;;;;;;;;5038147;28;20032;-91
2022/03/29 02:24:19;;;;;;;30.00;15.57;;;;;;;;;;5041326;28;20022;-93
2022/03/29 02:26:45;;;;;;;27.90;15.23;;;;;;;;;;5041267;28;20068;-92
2022/03/29 02:29:11;;;;;;;24.30;13.70;;;;;;;;;;5040171;28;20042;-91
2022/03/29 02:31:37;;;;;;;26.73;15.55;;;;;;;;;;5041025;28;20048;-93
2022/03/29 02:34:03;;;;;;;34.45;14.50;;;;;;;;;;5040371;28;20029;-93
2022/03/29 02:36:29;;;;;;;28.95;14.85;;;;;;;;;;5041038;28;20439;-93
2022/03/29 02:38:55;;;;;;;38.55;17.92;;;;;;;;;;5041188;28;20026;-93
2022/03/29 02:41:23;;;;;;;32.70;17.42;;;;;;;;;;5040855;28;20025;-90
2022/03/29 02:43:49;;;;;;;31.38;18.67;;;;;;;;;;5039939;28;20057;-91
2022/03/29 02:46:15;;;;;;;40.05;19.70;;;;;;;;;;5039982;28;20037;-92
2022/03/29 02:48:41;;;;;;;38.17;19.30;;;;;;;;;;5041161;28;20029;-91
2022/03/29 02:51:08;;;;;;;36.22;19.40;;;;;;;;;;5040081;28;20128;-91
2022/03/29 02:53:34;;;;;;;34.95;18.58;;;;;;;;;;5040976;28;20085;-91
2022/03/29 02:56:00;;;;;;;37.47;18.88;;;;;;;;;;5040850;28;20029;-92
2022/03/29 02:58:26;;;;;;;38.95;19.50;;;;;;;;;;5041161;28;20025;-93
2022/03/29 03:00:52;;;;;;;34.30;18.52;;;;;;;;;;5040554;28;20474;-91
2022/03/29 03:03:19;;;;;;;34.70;19.40;;;;;;;;;;5040710;28;20110;-92
2022/03/29 03:05:45;;;;;;;36.25;20.20;;;;;;;;;;5040387;28;20037;-92
2022/03/29 03:08:13;;;;;;;37.00;21.92;;;;;;;;;;5040525;28;20146;-91
2022/03/29 03:10:39;;;;;;;48.53;27.98;;;;;;;;;;5039575;28;20067;-93
2022/03/29 03:13:05;;;;;;;50.63;30.27;;;;;;;;;;5040295;28;20033;-91
2022/03/29 03:15:31;;;;;;;49.95;29.35;;;;;;;;;;5040280;28;20031;-91
2022/03/29 03:17:58;;;;;;;49.55;28.67;;;;;;;;;;5040282;28;20025;-91
2022/03/29 03:20:24;;;;;;;46.45;26.42;;;;;;;;;;5039953;28;20310;-93
2022/03/29 03:22:51;;;;;;;36.40;22.52;;;;;;;;;;5040395;28;20022;-92
2022/03/29 03:25:17;;;;;;;36.20;20.65;;;;;;;;;;5040249;28;20321;-93
2022/03/29 03:27:44;;;;;;;38.17;19.85;;;;;;;;;;5039056;28;20040;-93
2022/03/29 03:30:12;;;;;;;31.88;18.88;;;;;;;;;;5039056;28;20052;-91
2022/03/29 03:32:38;;;;;;;33.95;18.90;;;;;;;;;;5039834;28;20029;-92
2022/03/29 03:35:05;;;;;;;32.55;18.42;;;;;;;;;;5039078;28;20036;-92
2022/03/29 03:37:31;;;;;;;43.00;18.80;;;;;;;;;;5038989;28;20470;-92
2022/03/29 03:39:57;;;;;;;39.35;18.38;;;;;;;;;;5039913;28;20025;-91
2022/03/29 03:42:24;;;;;;;34.75;18.88;;;;;;;;;;5038763;28;20026;-92
2022/03/29 03:44:50;;;;;;;28.88;16.77;;;;;;;;;;5039697;28;20017;-92
2022/03/29 03:47:16;;;;;;;32.92;17.35;;;;;;;;;;5039595;28;20037;-92
2022/03/29 03:49:42;;;;;;;32.38;18.40;;;;;;;;;;5039885;28;20376;-91
2022/03/29 03:52:09;;;;;;;42.25;23.73;;;;;;;;;;5039662;28;20026;-91
2022/03/29 03:54:38;;;;;;;44.28;26.65;;;;;;;;;;5039632;28;20420;-90
2022/03/29 03:57:05;;;;;;;77.32;29.10;;;;;;;;;;5039483;28;20021;-91
2022/03/29 03:59:31;;;;;;;53.80;26.08;;;;;;;;;;5039445;28;20116;-91
2022/03/29 04:01:58;;;;;;;48.72;25.73;;;;;;;;;;5038667;28;20017;-91
2022/03/29 04:04:24;;;;;;;44.05;24.02;;;;;;;;;;5039633;28;20064;-92
2022/03/29 04:06:51;;;;;;;45.40;23.55;;;;;;;;;;5038448;28;20412;-90
2022/03/29 04:09:17;;;;;;;43.85;23.60;;;;;;;;;;5039408;28;20030;-92
2022/03/29 04:11:44;;;;;;;45.78;23.50;;;;;;;;;;5039624;28;20029;-93
2022/03/29 04:14:10;;;;;;;43.47;22.48;;;;;;;;;;5039361;28;20149;-93
2022/03/29 04:16:36;;;;;;;46.45;22.17;;;;;;;;;;5039096;28;20312;-92
2022/03/29 04:19:02;;;;;;;42.30;23.17;;;;;;;;;;5039289;28;20064;-92
2022/03/29 04:21:29;;;;;;;54.83;22.88;;;;;;;;;;5039231;28;20025;-94
2022/03/29 04:23:55;;;;;;;53.95;22.05;;;;;;;;;;5039185;28;20096;-94
2022/03/29 04:26:21;;;;;;;43.97;21.23;;;;;;;;;;5039054;28;20033;-91
2022/03/29 04:28:47;;;;;;;46.42;21.48;;;;;;;;;;5038828;28;20022;-91
2022/03/29 04:31:13;;;;;;;46.08;19.92;;;;;;;;;;5037299;28;20043;-90
2022/03/29 04:33:40;;;;;;;29.77;17.27;;;;;;;;;;5038413;28;20143;-89
2022/03/29 04:36:24;;;;;;;37.25;18.85;;;;;;;;;;5038164;28;20033;-89
2022/03/29 04:38:51;;;;;;;51.47;22.95;;;;;;;;;;5038948;28;20045;-92
2022/03/29 04:41:17;;;;;;;45.35;25.48;;;;;;;;;;5038092;28;20108;-89
2022/03/29 04:43:43;;;;;;;39.92;22.30;;;;;;;;;;5038988;28;20092;-89
2022/03/29 04:46:10;;;;;;;36.67;20.52;;;;;;;;;;5038721;28;20108;-90
2022/03/29 04:48:36;;;;;;;37.40;21.60;;;;;;;;;;5039045;28;20025;-93
2022/03/29 04:54:05;;;;;;;42.00;23.60;;;;;;;;;;5038781;28;20373;-91
2022/03/29 04:56:33;;;;;;;58.80;30.58;;;;;;;;;;5038942;28;20108;-91
2022/03/29 04:58:59;;;;;;;67.60;33.08;;;;;;;;;;5038667;28;20032;-90
2022/03/29 05:01:25;;;;;;;64.97;27.90;;;;;;;;;;5038395;28;20109;-89
2022/03/29 05:03:51;;;;;;;49.17;26.02;;;;;;;;;;5038075;28;20415;-89
2022/03/29 05:09:21;;;;;;;50.10;26.33;;;;;;;;;;5038323;28;20031;-90
2022/03/29 05:11:47;;;;;;;42.88;22.48;;;;;;;;;;5038292;28;20037;-90
2022/03/29 05:14:13;;;;;;;43.10;22.85;;;;;;;;;;5037752;28;20033;-91
2022/03/29 05:16:39;;;;;;;37.80;21.20;;;;;;;;;;5066888;28;20021;-91
2022/03/29 05:19:05;;;;;;;46.28;22.45;;;;;;;;;;5037362;28;20022;-94
2022/03/29 05:27:39;;;;;;;80.47;35.78;;;;;;;;;;5018593;28;20045;-89
2022/03/29 05:30:05;;;;;;;63.83;29.63;;;;;;;;;;5018212;28;20034;-90
2022/03/29 05:32:31;;;;;;;47.78;23.92;;;;;;;;;;5018288;28;20018;-90
2022/03/29 05:34:57;;;;;;;49.28;22.15;;;;;;;;;;5018247;28;20025;-91
2022/03/29 05:37:23;;;;;;;43.13;20.90;;;;;;;;;;5017901;28;20021;-90
2022/03/29 05:39:50;;;;;;;39.50;19.50;;;;;;;;;;5018103;28;20030;-92
2022/03/29 05:42:16;;;;;;;37.08;19.42;;;;;;;;;;5018116;28;20101;-90
2022/03/29 05:44:43;;;;;;;33.70;18.15;;;;;;;;;;5017963;28;20026;-91
2022/03/29 05:49:54;;;;;;;37.83;19.90;;;;;;;;;;5018284;28;20033;-89
2022/03/29 05:52:21;;;;;;;36.17;19.95;;;;;;;;;;5017957;28;20029;-90
2022/03/29 05:54:47;;;;;;;45.95;21.88;;;;;;;;;;5017821;28;20379;-90
2022/03/29 05:57:14;;;;;;;43.92;24.63;;;;;;;;;;5017222;28;20018;-89
2022/03/29 05:59:40;;;;;;;55.55;30.40;;;;;;;;;;5016768;28;20022;-89
2022/03/29 06:02:08;;;;;;;59.58;33.90;;;;;;;;;;5016659;28;20022;-89
2022/03/29 06:04:37;;;;;;;55.75;29.50;;;;;;;;;;5017859;28;20026;-89
2022/03/29 06:07:15;;;;;;;46.22;24.70;;;;;;;;;;5017785;28;20022;-89
2022/03/29 06:09:41;;;;;;;47.30;27.02;;;;;;;;;;5017956;28;20037;-89
2022/03/29 06:12:07;;;;;;;55.70;29.80;;;;;;;;;;5017588;28;20072;-89
2022/03/29 06:14:33;;;;;;;45.97;29.95;;;;;;;;;;5016678;28;20034;-88
2022/03/29 06:17:00;;;;;;;56.20;33.05;;;;;;;;;;5017614;28;20026;-89
2022/03/29 06:19:27;;;;;;;61.03;34.42;;;;;;;;;;5017873;28;20025;-89
2022/03/29 06:21:53;;;;;;;50.50;28.00;;;;;;;;;;5017529;28;20408;-90
2022/03/29 06:24:19;;;;;;;54.60;27.40;;;;;;;;;;5016724;28;20068;-89
2022/03/29 06:26:45;;;;;;;53.50;27.80;;;;;;;;;;5017545;28;20026;-89
2022/03/29 06:29:11;;;;;;;46.65;25.67;;;;;;;;;;5017428;28;20100;-90
2022/03/29 06:31:38;;;;;;;38.90;21.25;;;;;;;;;;5016905;28;20381;-89
2022/03/29 06:34:05;;;;;;;34.60;20.45;;;;;;;;;;5017408;28;20057;-89
2022/03/29 06:36:49;;;;;;;35.63;21.38;;;;;;;;;;5016420;28;20069;-89
2022/03/29 06:39:16;;;;;;;41.15;22.17;;;;;;;;;;5016631;28;20363;-90
2022/03/29 06:41:42;;;;;;;35.03;21.85;;;;;;;;;;5017691;28;20026;-89
2022/03/29 06:44:09;;;;;;;36.03;21.20;;;;;;;;;;5017735;28;20043;-89
2022/03/29 06:46:36;;;;;;;37.88;20.50;;;;;;;;;;5016535;28;20029;-89
2022/03/29 06:49:03;;;;;;;34.28;20.67;;;;;;;;;;5017502;28;20018;-88
2022/03/29 06:51:32;;;;;;;31.45;19.67;;;;;;;;;;5016415;28;20026;-89
2022/03/29 06:53:59;;;;;;;39.15;20.33;;;;;;;;;;5016435;28;20135;-88
2022/03/29 06:56:25;;;;;;;34.40;20.10;;;;;;;;;;5016276;28;20029;-89
2022/03/29 06:58:52;;;;;;;42.20;21.23;;;;;;;;;;5016370;28;20026;-88
2022/03/29 07:01:18;;;;;;;41.88;21.17;;;;;;;;;;5017584;28;20068;-89
2022/03/29 07:03:44;;;;;;;35.25;21.25;;;;;;;;;;5017191;28;20026;-88
2022/03/29 07:06:10;;;;;;;30.17;20.48;;;;;;;;;;5016368;28;20340;-89
2022/03/29 07:11:16;;;;;;;34.17;21.48;;;;;;;;;;5017789;28;20026;-89
2022/03/29 07:11:24;;;;;;;34.50;21.00;;;;;;;;;;5020915;28;20034;-90
2022/03/29 07:13:50;;;;;;;32.90;20.45;;;;;;;;;;5020814;28;20048;-90
2022/03/29 07:16:16;;;;;;;31.73;20.67;;;;;;;;;;5019795;28;20036;-89
2022/03/29 07:18:43;;;;;;;31.95;21.08;;;;;;;;;;5019625;28;20421;-89
2022/03/29 07:21:10;;;;;;;39.88;20.73;;;;;;;;;;5020417;28;20032;-89
2022/03/29 07:23:36;;;;;;;35.53;20.70;;;;;;;;;;5020456;28;20029;-89
2022/03/29 07:26:02;;;;;;;37.08;22.77;;;;;;;;;;5020045;28;20420;-89
2022/03/29 07:28:28;;;;;;;32.20;20.95;;;;;;;;;;5020421;28;20036;-90
2022/03/29 07:30:55;;;;;;;32.75;20.48;;;;;;;;;;5020189;28;20336;-89
2022/03/29 07:33:21;;;;;;;36.22;21.90;;;;;;;;;;5019333;28;20026;-89
2022/03/29 07:35:47;;;;;;;35.78;21.23;;;;;;;;;;5020038;28;20034;-88
2022/03/29 07:38:13;;;;;;;41.30;20.52;;;;;;;;;;5019180;28;20026;-89
2022/03/29 07:40:40;;;;;;;31.20;19.60;;;;;;;;;;5020356;28;20026;-89
2022/03/29 07:43:08;;;;;;;34.20;19.83;;;;;;;;;;5020255;28;20046;-89
2022/03/29 07:45:35;;;;;;;31.45;20.58;;;;;;;;;;5019341;28;20038;-89
2022/03/29 07:48:03;;;;;;;33.17;19.77;;;;;;;;;;5019941;28;20034;-88
2022/03/29 07:50:29;;;;;;;37.33;21.60;;;;;;;;;;5019814;28;20416;-89
2022/03/29 07:52:57;;;;;;;30.67;19.60;;;;;;;;;;5019833;28;20026;-89
2022/03/29 07:55:24;;;;;;;36.03;20.58;;;;;;;;;;5019906;28;20026;-88
2022/03/29 07:57:50;;;;;;;38.45;22.08;;;;;;;;;;5019988;28;20037;-87
2022/03/29 08:00:31;;;;;;;32.70;21.23;;;;;;;;;;5019177;28;20034;-88
2022/03/29 08:02:58;;;;;;;33.70;21.40;;;;;;;;;;5019892;28;20026;-89
2022/03/29 08:05:25;;;;;;;35.58;21.88;;;;;;;;;;5019548;28;20034;-88
2022/03/29 08:07:51;;;;;;;42.15;22.38;;;;;;;;;;5019567;28;20463;-88
2022/03/29 08:10:17;;;;;;;34.60;22.70;;;;;;;;;;5019783;28;20034;-88
2022/03/29 08:12:44;;;;;;;33.80;22.25;;;;;;;;;;5019262;28;20041;-89
2022/03/29 08:15:10;;;;;;;35.40;22.15;;;;;;;;;;5019368;28;20073;-88
2022/03/29 08:17:37;;;;;;;33.90;21.95;;;;;;;;;;5018722;28;20408;-89
2022/03/29 08:20:06;;;;;;;35.95;21.27;;;;;;;;;;5019113;28;20036;-88
2022/03/29 08:22:33;;;;;;;37.90;22.08;;;;;;;;;;5019179;28;20026;-88
2022/03/29 08:25:00;;;;;;;39.15;22.60;;;;;;;;;;5019415;28;20030;-88
2022/03/29 08:27:26;;;;;;;35.15;23.10;;;;;;;;;;5018385;28;20033;-89
2022/03/29 08:29:52;;;;;;;32.67;21.15;;;;;;;;;;5019293;28;20042;-89
2022/03/29 08:32:19;;;;;;;34.92;22.00;;;;;;;;;;5019169;28;20289;-89
2022/03/29 08:34:45;;;;;;;44.53;21.55;;;;;;;;;;5018257;28;20026;-91
2022/03/29 08:37:11;;;;;;;37.88;21.63;;;;;;;;;;5019137;28;20124;-91
2022/03/29 08:39:37;;;;;;;38.15;22.10;;;;;;;;;;5018126;28;20018;-92
2022/03/29 08:42:05;;;;;;;42.28;25.67;;;;;;;;;;5018963;28;20033;-91
2022/03/29 08:44:33;;;;;;;52.80;22.05;;;;;;;;;;5018783;28;20022;-90
2022/03/29 08:47:00;;;;;;;38.70;22.48;;;;;;;;;;5018706;28;20029;-89
2022/03/29 08:49:26;;;;;;;37.58;21.70;;;;;;;;;;5018807;28;20424;-90
2022/03/29 08:51:53;;;;;;;41.10;25.70;;;;;;;;;;5018097;28;20033;-91
2022/03/29 08:54:22;;;;;;;33.67;21.60;;;;;;;;;;5019411;28;20108;-91
2022/03/29 08:56:48;;;;;;;35.22;22.02;;;;;;;;;;5018507;28;20397;-90
2022/03/29 08:59:15;;;;;;;39.85;22.02;;;;;;;;;;5018670;28;20018;-91
2022/03/29 09:01:42;;;;;;;36.83;20.92;;;;;;;;;;5017951;28;20018;-91
2022/03/29 09:04:12;;;;;;;35.20;21.17;;;;;;;;;;5018486;28;20392;-91
2022/03/29 09:06:50;;;;;;;31.65;21.92;;;;;;;;;;5018514;28;20041;-90
2022/03/29 09:09:46;;;;;;;34.33;20.73;;;;;;;;;;5017502;28;20030;-90
2022/03/29 09:12:16;;;;;;;36.42;20.27;;;;;;;;;;4958606;29;20054;-90
2022/03/29 09:14:56;;;;;;;48.10;21.02;;;;;;;;;;4958362;29;20110;-91
2022/03/29 09:17:26;;;;;;;28.95;18.88;;;;;;;;;;4942613;29;20042;-91
2022/03/29 09:19:52;;;;;;;28.75;19.10;;;;;;;;;;4958612;29;20019;-91
2022/03/29 09:22:37;;;;;;;28.77;17.30;;;;;;;;;;4958355;29;20043;-91
2022/03/29 09:25:04;;;;;;;31.35;18.40;;;;;;;;;;4958372;29;20053;-91
2022/03/29 09:27:30;;;;;;;29.13;16.70;;;;;;;;;;4958331;29;20034;-90
2022/03/29 09:30:06;;;;;;;33.75;17.83;;;;;;;;;;4942267;29;20049;-90
2022/03/29 09:32:32;;;;;;;28.70;17.05;;;;;;;;;;4957455;28;20056;-91
2022/03/29 09:35:08;;;;;;;31.13;18.40;;;;;;;;;;4942118;29;20422;-90
2022/03/29 09:37:35;;;;;;;30.23;17.48;;;;;;;;;;4958130;29;20023;-89
2022/03/29 09:40:02;;;;;;;28.95;16.50;;;;;;;;;;4958017;29;20424;-90
2022/03/29 09:42:28;;;;;;;33.38;19.08;;;;;;;;;;4958142;29;20421;-89
2022/03/29 09:44:57;;;;;;;32.50;18.13;;;;;;;;;;4958290;29;20030;-90
2022/03/29 09:47:23;;;;;;;34.22;18.33;;;;;;;;;;4959209;28;20074;-91
2022/03/29 09:49:53;;;;;;;38.80;19.70;;;;;;;;;;5018188;28;20033;-95
2022/03/29 09:52:20;;;;;;;28.23;17.80;;;;;;;;;;5018190;28;20088;-91
2022/03/29 09:55:05;;;;;;;30.08;17.75;;;;;;;;;;5017724;28;20033;-90
2022/03/29 09:57:35;;;;;;;26.55;17.60;;;;;;;;;;5017504;28;20037;-90
2022/03/29 10:00:01;;;;;;;28.45;17.85;;;;;;;;;;5017676;28;20021;-91
2022/03/29 10:02:37;;;;;;;34.88;23.45;;;;;;;;;;5018706;28;20387;-96
2022/03/29 10:05:04;;;;;;;34.35;21.25;;;;;;;;;;5017301;28;20026;-94
2022/03/29 10:07:39;;;;;;;39.08;20.08;;;;;;;;;;5017672;28;20022;-93
2022/03/29 10:10:07;;;;;;;56.60;30.90;;;;;;;;;;5017754;28;20026;-94
2022/03/29 10:12:39;;;;;;;26.17;17.38;;;;;;;;;;5018014;28;20045;-92
2022/03/29 10:15:05;;;;;;;25.35;17.23;;;;;;;;;;5017836;28;20037;-91
2022/03/29 10:17:32;;;;;;;28.02;17.00;;;;;;;;;;5017976;28;20054;-91
2022/03/29 10:20:00;;;;;;;24.02;16.80;;;;;;;;;;5017516;28;20026;-92
2022/03/29 10:22:26;;;;;;;33.05;17.70;;;;;;;;;;5017491;28;20412;-92
2022/03/29 10:24:55;;;;;;;29.00;16.73;;;;;;;;;;5017798;28;20030;-90
2022/03/29 10:27:22;;;;;;;29.48;17.35;;;;;;;;;;5017716;28;20030;-91
2022/03/29 10:29:48;;;;;;;30.52;17.33;;;;;;;;;;5017550;28;20424;-91
2022/03/29 10:32:27;;;;;;;28.73;17.67;;;;;;;;;;5017761;28;20026;-91
2022/03/29 10:35:08;;;;;;;44.50;23.10;;;;;;;;;;5017368;28;20022;-91
2022/03/29 10:37:53;;;;;;;34.60;22.23;;;;;;;;;;5016673;28;20424;-91
2022/03/29 10:40:38;;;;;;;32.28;18.33;;;;;;;;;;5017421;28;20025;-91
2022/03/29 10:43:27;;;;;;;35.22;21.98;;;;;;;;;;5017682;28;20324;-91
2022/03/29 10:45:56;;;;;;;40.67;24.52;;;;;;;;;;5021295;28;20030;-94
2022/03/29 10:48:22;;;;;;;35.08;18.52;;;;;;;;;;5021767;28;20037;-91
2022/03/29 10:50:54;;;;;;;28.48;17.20;;;;;;;;;;5021242;28;20072;-92
2022/03/29 10:53:31;;;;;;;27.75;17.38;;;;;;;;;;5020960;28;20323;-91
2022/03/29 10:56:32;;;;;;;36.25;20.75;;;;;;;;;;5020789;28;20080;-91
2022/03/29 10:59:03;;;;;;;32.67;18.75;;;;;;;;;;4964138;28;20553;-91
2022/03/29 11:01:29;;;;;;;27.98;17.70;;;;;;;;;;4980057;28;20045;-93
2022/03/29 11:03:59;;;;;;;30.10;18.10;;;;;;;;;;4980167;28;20448;-92
2022/03/29 11:06:25;;;;;;;24.27;16.88;;;;;;;;;;4980115;28;20301;-92
2022/03/29 11:09:02;;;;;;;25.27;17.33;;;;;;;;;;4980265;28;20035;-91
2022/03/29 11:11:47;;;;;;;27.30;17.23;;;;;;;;;;4963672;28;20042;-91
2022/03/29 11:14:30;;;;;;;23.50;17.17;;;;;;;;;;4980082;28;20031;-92
2022/03/29 11:17:11;;;;;;;35.13;17.23;;;;;;;;;;4980098;28;20030;-92
2022/03/29 11:19:46;;;;;;;26.25;16.25;;;;;;;;;;4979916;28;20026;-91
2022/03/29 11:28:18;;;;;;;26.73;18.70;;;;;;;;;;4980166;28;20065;-92
2022/03/29 11:30:44;;;;;;;29.52;17.63;;;;;;;;;;4979991;28;20105;-90
2022/03/29 11:33:11;;;;;;;32.53;18.17;;;;;;;;;;4980750;28;20050;-92
2022/03/29 11:35:41;;;;;;;25.23;17.58;;;;;;;;;;5017622;28;20042;-92
2022/03/29 11:38:07;;;;;;;28.77;17.55;;;;;;;;;;5020295;28;20137;-92
2022/03/29 11:40:33;;;;;;;30.23;17.95;;;;;;;;;;5020635;28;20044;-91
2022/03/29 11:43:00;;;;;;;42.17;17.55;;;;;;;;;;5019635;28;20056;-91
2022/03/29 11:45:35;;;;;;;32.35;16.70;;;;;;;;;;5019988;28;20026;-91
2022/03/29 11:48:07;;;;;;;29.27;17.75;;;;;;;;;;5019167;28;20416;-91
2022/03/29 11:50:52;;;;;;;35.30;17.33;;;;;;;;;;5019845;28;20030;-91
2022/03/29 11:53:18;;;;;;;26.88;16.83;;;;;;;;;;5019919;28;20073;-92
2022/03/29 11:55:54;;;;;;;30.08;17.63;;;;;;;;;;5018945;28;20026;-91
2022/03/29 11:58:24;;;;;;;30.85;17.60;;;;;;;;;;5034707;28;20029;-91
2022/03/29 12:00:50;;;;;;;26.63;16.55;;;;;;;;;;5039271;28;20112;-91
2022/03/29 12:03:33;;;;;;;24.75;15.35;;;;;;;;;;5039653;28;20072;-91
2022/03/29 12:06:03;;;;;;;25.33;16.63;;;;;;;;;;5039540;28;20434;-91
2022/03/29 12:08:49;;;;;;;24.52;15.85;;;;;;;;;;5039464;28;20072;-91
2022/03/29 12:11:44;;;;;;;29.02;16.90;;;;;;;;;;5039732;28;20373;-91
2022/03/29 12:14:11;;;;;;;26.02;16.10;;;;;;;;;;5039410;28;20041;-92
2022/03/29 12:16:43;;;;;;;27.27;16.20;;;;;;;;;;5039267;28;20052;-91
2022/03/29 12:19:12;;;;;;;27.05;15.88;;;;;;;;;;5039332;28;20080;-90
2022/03/29 12:21:39;;;;;;;30.20;16.20;;;;;;;;;;5039129;28;20037;-92
2022/03/29 12:24:06;;;;;;;24.98;15.95;;;;;;;;;;5039201;28;20109;-91
2022/03/29 12:26:35;;;;;;;25.23;15.48;;;;;;;;;;5039040;28;20033;-90
2022/03/29 12:29:02;;;;;;;30.27;15.32;;;;;;;;;;5039023;28;20061;-91
2022/03/29 12:31:28;;;;;;;30.95;16.27;;;;;;;;;;5038952;28;20025;-91
2022/03/29 12:33:55;;;;;;;23.38;15.65;;;;;;;;;;5039062;28;20029;-91
2022/03/29 12:36:22;;;;;;;28.27;15.73;;;;;;;;;;5038931;28;20022;-91
2022/03/29 12:38:55;;;;;;;27.50;16.58;;;;;;;;;;5037850;28;20051;-92
2022/03/29 12:41:37;;;;;;;30.75;15.68;;;;;;;;;;5039281;28;20070;-91
2022/03/29 12:44:04;;;;;;;24.17;15.93;;;;;;;;;;5038870;28;20053;-91
2022/03/29 12:46:30;;;;;;;30.00;16.20;;;;;;;;;;5038668;28;20026;-91
2022/03/29 12:48:57;;;;;;;29.02;15.82;;;;;;;;;;5038879;28;20053;-91
2022/03/29 12:51:29;;;;;;;27.63;16.17;;;;;;;;;;5038336;28;20036;-91
2022/03/29 12:53:56;;;;;;;24.73;15.35;;;;;;;;;;5038594;28;20489;-91
2022/03/29 12:56:29;;;;;;;26.63;15.10;;;;;;;;;;5038643;28;20125;-91
2022/03/29 12:58:55;;;;;;;30.17;15.55;;;;;;;;;;5038379;28;20022;-93
2022/03/29 13:01:25;;;;;;;27.25;15.52;;;;;;;;;;5038471;28;20041;-92
2022/03/29 13:03:51;;;;;;;24.60;15.77;;;;;;;;;;5038429;28;20108;-93
2022/03/29 13:06:18;;;;;;;25.05;17.05;;;;;;;;;;5038632;28;20025;-95
2022/03/29 13:08:44;;;;;;;26.88;17.83;;;;;;;;;;5037812;28;20331;-92
2022/03/29 13:11:17;;;;;;;27.40;15.10;;;;;;;;;;5038416;28;20404;-91
2022/03/29 13:13:43;;;;;;;33.00;15.80;;;;;;;;;;5038103;28;20091;-91
2022/03/29 13:16:19;;;;;;;36.95;16.00;;;;;;;;;;5037929;28;20056;-89
2022/03/29 13:18:45;;;;;;;29.80;15.82;;;;;;;;;;5038100;28;20030;-90
2022/03/29 13:21:11;;;;;;;30.98;16.75;;;;;;;;;;5038096;28;20297;-89
2022/03/29 13:23:42;;;;;;;32.58;16.70;;;;;;;;;;5037509;28;20034;-89
2022/03/29 13:26:09;;;;;;;26.73;15.13;;;;;;;;;;5038009;28;20037;-89
2022/03/29 13:28:35;;;;;;;31.55;15.75;;;;;;;;;;5037844;28;20040;-89
2022/03/29 13:31:02;;;;;;;32.75;15.68;;;;;;;;;;5037736;28;20045;-90
2022/03/29 13:33:28;;;;;;;26.90;14.77;;;;;;;;;;5037857;28;20112;-89
2022/03/29 13:35:54;;;;;;;22.75;15.43;;;;;;;;;;5024373;28;20046;-86
2022/03/29 13:38:20;;;;;;;23.85;14.80;;;;;;;;;;5018083;28;20308;-86
2022/03/29 13:40:47;;;;;;;26.17;15.98;;;;;;;;;;5018073;28;20026;-85
2022/03/29 13:43:14;;;;;;;30.48;15.75;;;;;;;;;;5017601;28;20025;-86
2022/03/29 13:45:42;;;;;;;23.95;15.85;;;;;;;;;;5017209;28;20062;-86
2022/03/29 13:48:08;;;;;;;22.27;13.98;;;;;;;;;;5018092;28;20428;-86
2022/03/29 13:50:35;;;;;;;36.15;17.27;;;;;;;;;;5018025;28;20022;-86
2022/03/29 13:53:01;;;;;;;28.50;16.58;;;;;;;;;;5017378;28;20045;-86
2022/03/29 13:55:27;;;;;;;26.08;16.65;;;;;;;;;;5017738;28;20053;-86
2022/03/29 13:57:53;;;;;;;35.78;15.93;;;;;;;;;;5017715;28;20026;-86
2022/03/29 14:00:19;;;;;;;26.30;15.98;;;;;;;;;;5033313;28;20041;-86
2022/03/29 14:02:46;;;;;;;34.08;16.95;;;;;;;;;;5018019;28;20029;-86
2022/03/29 14:05:12;;;;;;;27.55;16.52;;;;;;;;;;5032974;28;20033;-86
2022/03/29 14:07:39;;;;;;;30.73;17.35;;;;;;;;;;5017739;28;20022;-86
2022/03/29 14:10:05;;;;;;;27.05;17.52;;;;;;;;;;5017681;28;20037;-86
2022/03/29 14:12:31;;;;;;;30.90;17.05;;;;;;;;;;5016950;28;20029;-86
2022/03/29 14:14:57;;;;;;;31.70;18.02;;;;;;;;;;5017583;28;20025;-86
2022/03/29 14:17:23;;;;;;;43.17;21.02;;;;;;;;;;5017593;28;20022;-86
2022/03/29 14:19:51;;;;;;;32.85;17.60;;;;;;;;;;5037181;28;20026;-86
2022/03/29 14:22:18;;;;;;;30.10;16.48;;;;;;;;;;5037014;28;20034;-87
2022/03/29 14:24:44;;;;;;;24.42;16.05;;;;;;;;;;5021598;28;20026;-86
2022/03/29 14:27:10;;;;;;;45.10;17.65;;;;;;;;;;5037001;28;20022;-86
2022/03/29 14:29:37;;;;;;;39.50;17.23;;;;;;;;;;5021310;28;20348;-86
2022/03/29 14:32:03;;;;;;;37.33;17.63;;;;;;;;;;5037045;28;20386;-86
2022/03/29 14:34:30;;;;;;;32.08;16.25;;;;;;;;;;5021272;28;20083;-86
2022/03/29 14:36:56;;;;;;;29.63;16.20;;;;;;;;;;5021261;28;20033;-86
2022/03/29 14:39:23;;;;;;;24.55;16.08;;;;;;;;;;5036467;28;20034;-86
2022/03/29 14:41:49;;;;;;;28.13;16.25;;;;;;;;;;5021499;28;20026;-87
2022/03/29 14:44:15;;;;;;;26.63;16.55;;;;;;;;;;5036752;28;20034;-86